sensor_id;sensor_type;location;lat;lon;timestamp;pressure;altitude;pressure_sealevel;temperature;humidity
47082;BME280;33066;49.296;14.470;2023-09-18T00:02:06;96853.57;;;23.99;35.67
47082;BME280;33066;49.296;14.470;2023-09-18T00:04:31;96851.65;;;23.94;35.75
47082;BME280;33066;49.296;14.470;2023-09-18T00:06:56;96850.25;;;23.92;35.80
47082;BME280;33066;49.296;14.470;2023-09-18T00:09:21;96844.89;;;23.83;35.86
47082;BME280;33066;49.296;14.470;2023-09-18T00:11:46;96839.96;;;23.74;35.93
47082;BME280;33066;49.296;14.470;2023-09-18T00:14:12;96838.62;;;23.91;35.99
47082;BME280;33066;49.296;14.470;2023-09-18T00:16:36;96837.80;;;23.64;36.12
47082;BME280;33066;49.296;14.470;2023-09-18T00:19:01;96842.37;;;23.59;36.31
47082;BME280;33066;49.296;14.470;2023-09-18T00:21:28;96841.92;;;23.54;36.48
47082;BME280;33066;49.296;14.470;2023-09-18T00:23:51;96836.38;;;23.53;36.57
47082;BME280;33066;49.296;14.470;2023-09-18T00:26:17;96829.58;;;23.51;36.69
47082;BME280;33066;49.296;14.470;2023-09-18T00:28:43;96825.50;;;23.49;36.69
47082;BME280;33066;49.296;14.470;2023-09-18T00:31:07;96822.67;;;23.48;36.70
47082;BME280;33066;49.296;14.470;2023-09-18T00:33:32;96824.74;;;23.68;36.83
47082;BME280;33066;49.296;14.470;2023-09-18T00:35:57;96818.45;;;23.57;37.09
47082;BME280;33066;49.296;14.470;2023-09-18T00:38:23;96814.20;;;23.29;37.18
47082;BME280;33066;49.296;14.470;2023-09-18T00:40:49;96811.03;;;23.46;37.37
47082;BME280;33066;49.296;14.470;2023-09-18T00:43:13;96810.00;;;23.68;37.37
47082;BME280;33066;49.296;14.470;2023-09-18T00:45:40;96805.54;;;23.34;37.46
47082;BME280;33066;49.296;14.470;2023-09-18T00:48:04;96802.93;;;23.28;37.49
47082;BME280;33066;49.296;14.470;2023-09-18T00:50:28;96803.15;;;22.96;37.58
47082;BME280;33066;49.296;14.470;2023-09-18T00:52:54;96803.44;;;23.37;37.72
47082;BME280;33066;49.296;14.470;2023-09-18T00:55:19;96797.72;;;23.32;37.75
47082;BME280;33066;49.296;14.470;2023-09-18T00:57:45;96793.45;;;23.04;37.83
47082;BME280;33066;49.296;14.470;2023-09-18T01:00:10;96789.84;;;22.99;37.84
47082;BME280;33066;49.296;14.470;2023-09-18T01:02:34;96784.75;;;23.01;37.79
47082;BME280;33066;49.296;14.470;2023-09-18T01:04:59;96783.90;;;23.00;37.79
47082;BME280;33066;49.296;14.470;2023-09-18T01:07:24;96784.12;;;22.94;37.80
47082;BME280;33066;49.296;14.470;2023-09-18T01:09:49;96787.97;;;22.97;37.01
47082;BME280;33066;49.296;14.470;2023-09-18T01:12:21;96785.15;;;23.18;36.12
47082;BME280;33066;49.296;14.470;2023-09-18T01:14:44;96782.91;;;22.89;35.89
47082;BME280;33066;49.296;14.470;2023-09-18T01:17:05;96777.22;;;22.78;35.97
47082;BME280;33066;49.296;14.470;2023-09-18T01:19:36;96773.48;;;23.02;36.23
47082;BME280;33066;49.296;14.470;2023-09-18T01:21:55;96770.65;;;23.01;36.20
47082;BME280;33066;49.296;14.470;2023-09-18T01:24:20;96771.57;;;22.76;36.44
47082;BME280;33066;49.296;14.470;2023-09-18T01:26:45;96770.02;;;22.79;36.51
47082;BME280;33066;49.296;14.470;2023-09-18T01:29:10;96763.84;;;22.73;36.51
47082;BME280;33066;49.296;14.470;2023-09-18T01:31:35;96759.23;;;22.99;36.41
47082;BME280;33066;49.296;14.470;2023-09-18T01:34:00;96753.36;;;22.99;36.23
47082;BME280;33066;49.296;14.470;2023-09-18T01:36:25;96753.12;;;22.92;36.28
47082;BME280;33066;49.296;14.470;2023-09-18T01:38:50;96753.39;;;22.93;36.25
47082;BME280;33066;49.296;14.470;2023-09-18T01:41:15;96752.58;;;22.68;36.10
47082;BME280;33066;49.296;14.470;2023-09-18T01:43:41;96750.26;;;22.87;36.24
47082;BME280;33066;49.296;14.470;2023-09-18T01:46:06;96746.75;;;22.79;36.36
47082;BME280;33066;49.296;14.470;2023-09-18T01:48:31;96743.99;;;22.67;36.55
47082;BME280;33066;49.296;14.470;2023-09-18T01:50:57;96743.24;;;22.60;36.56
47082;BME280;33066;49.296;14.470;2023-09-18T01:53:22;96742.08;;;22.54;36.62
47082;BME280;33066;49.296;14.470;2023-09-18T01:55:47;96743.34;;;22.62;36.69
47082;BME280;33066;49.296;14.470;2023-09-18T01:58:12;96742.00;;;22.60;36.72
47082;BME280;33066;49.296;14.470;2023-09-18T02:00:37;96739.70;;;22.84;36.72
47082;BME280;33066;49.296;14.470;2023-09-18T02:03:02;96733.01;;;22.62;36.65
47082;BME280;33066;49.296;14.470;2023-09-18T02:05:27;96722.89;;;22.72;36.53
47082;BME280;33066;49.296;14.470;2023-09-18T02:07:52;96715.47;;;22.49;36.51
47082;BME280;33066;49.296;14.470;2023-09-18T02:10:18;96713.42;;;22.70;36.54
47082;BME280;33066;49.296;14.470;2023-09-18T02:12:43;96713.00;;;22.60;36.64
47082;BME280;33066;49.296;14.470;2023-09-18T02:15:09;96709.96;;;22.51;36.72
47082;BME280;33066;49.296;14.470;2023-09-18T02:17:34;96705.13;;;22.94;36.75
47082;BME280;33066;49.296;14.470;2023-09-18T02:19:59;96698.27;;;22.35;37.03
47082;BME280;33066;49.296;14.470;2023-09-18T02:22:26;96696.27;;;22.29;37.28
47082;BME280;33066;49.296;14.470;2023-09-18T02:24:49;96692.35;;;22.45;37.50
47082;BME280;33066;49.296;14.470;2023-09-18T02:27:15;96687.64;;;22.35;37.70
47082;BME280;33066;49.296;14.470;2023-09-18T02:29:40;96688.50;;;22.30;37.80
47082;BME280;33066;49.296;14.470;2023-09-18T02:32:05;96688.74;;;22.28;37.98
47082;BME280;33066;49.296;14.470;2023-09-18T02:34:32;96688.31;;;22.05;37.98
47082;BME280;33066;49.296;14.470;2023-09-18T02:36:56;96686.45;;;22.05;36.84
47082;BME280;33066;49.296;14.470;2023-09-18T02:39:22;96682.45;;;22.26;36.61
47082;BME280;33066;49.296;14.470;2023-09-18T02:41:47;96681.82;;;22.32;36.55
47082;BME280;33066;49.296;14.470;2023-09-18T02:44:12;96681.18;;;22.07;36.36
47082;BME280;33066;49.296;14.470;2023-09-18T02:46:37;96679.53;;;22.05;36.28
47082;BME280;33066;49.296;14.470;2023-09-18T02:49:03;96676.20;;;22.00;36.52
47082;BME280;33066;49.296;14.470;2023-09-18T02:51:28;96673.51;;;22.19;36.53
47082;BME280;33066;49.296;14.470;2023-09-18T02:53:55;96666.96;;;21.86;36.66
47082;BME280;33066;49.296;14.470;2023-09-18T02:56:18;96664.21;;;22.31;36.87
47082;BME280;33066;49.296;14.470;2023-09-18T02:58:44;96664.79;;;22.24;36.87
47082;BME280;33066;49.296;14.470;2023-09-18T03:01:09;96668.31;;;21.86;36.73
47082;BME280;33066;49.296;14.470;2023-09-18T03:03:36;96673.06;;;21.68;37.09
47082;BME280;33066;49.296;14.470;2023-09-18T03:06:01;96668.58;;;21.84;37.31
47082;BME280;33066;49.296;14.470;2023-09-18T03:08:25;96670.31;;;21.84;37.66
47082;BME280;33066;49.296;14.470;2023-09-18T03:13:00;96673.87;;;22.14;37.12
47082;BME280;33066;49.296;14.470;2023-09-18T03:15:26;96673.37;;;21.77;37.48
47082;BME280;33066;49.296;14.470;2023-09-18T03:17:50;96669.77;;;22.23;37.73
47082;BME280;33066;49.296;14.470;2023-09-18T03:20:16;96666.22;;;22.02;37.79
47082;BME280;33066;49.296;14.470;2023-09-18T03:22:42;96657.69;;;22.04;37.59
47082;BME280;33066;49.296;14.470;2023-09-18T03:25:07;96652.02;;;21.81;37.66
47082;BME280;33066;49.296;14.470;2023-09-18T03:27:32;96648.72;;;22.09;37.92
47082;BME280;33066;49.296;14.470;2023-09-18T03:29:56;96649.11;;;21.96;38.20
47082;BME280;33066;49.296;14.470;2023-09-18T03:32:22;96646.59;;;22.00;38.59
47082;BME280;33066;49.296;14.470;2023-09-18T03:34:50;96646.00;;;22.03;38.79
47082;BME280;33066;49.296;14.470;2023-09-18T03:37:13;96645.53;;;22.22;38.42
47082;BME280;33066;49.296;14.470;2023-09-18T03:39:38;96652.48;;;22.17;37.82
47082;BME280;33066;49.296;14.470;2023-09-18T03:42:03;96655.32;;;22.14;37.19
47082;BME280;33066;49.296;14.470;2023-09-18T03:44:31;96652.30;;;22.30;36.93
47082;BME280;33066;49.296;14.470;2023-09-18T03:46:54;96646.41;;;22.21;37.44
47082;BME280;33066;49.296;14.470;2023-09-18T03:49:19;96643.41;;;21.91;37.01
47082;BME280;33066;49.296;14.470;2023-09-18T03:51:44;96639.79;;;22.12;37.34
47082;BME280;33066;49.296;14.470;2023-09-18T03:54:09;96639.70;;;22.14;37.37
47082;BME280;33066;49.296;14.470;2023-09-18T03:56:34;96636.18;;;21.93;37.39
47082;BME280;33066;49.296;14.470;2023-09-18T03:58:59;96633.96;;;21.92;37.23
47082;BME280;33066;49.296;14.470;2023-09-18T04:01:26;96631.75;;;21.87;37.23
47082;BME280;33066;49.296;14.470;2023-09-18T04:03:50;96630.57;;;21.85;37.18
47082;BME280;33066;49.296;14.470;2023-09-18T04:06:15;96634.78;;;21.76;37.28
47082;BME280;33066;49.296;14.470;2023-09-18T04:08:40;96635.69;;;21.84;37.58
47082;BME280;33066;49.296;14.470;2023-09-18T04:11:05;96635.72;;;21.46;37.78
47082;BME280;33066;49.296;14.470;2023-09-18T04:13:30;96636.86;;;21.62;37.90
47082;BME280;33066;49.296;14.470;2023-09-18T04:15:55;96636.95;;;21.56;38.08
47082;BME280;33066;49.296;14.470;2023-09-18T04:18:20;96636.47;;;21.53;38.29
47082;BME280;33066;49.296;14.470;2023-09-18T04:20:45;96634.74;;;21.53;38.25
47082;BME280;33066;49.296;14.470;2023-09-18T04:23:21;96632.48;;;21.51;38.21
47082;BME280;33066;49.296;14.470;2023-09-18T04:25:36;96636.69;;;21.24;38.24
47082;BME280;33066;49.296;14.470;2023-09-18T04:28:01;96634.24;;;21.67;38.41
47082;BME280;33066;49.296;14.470;2023-09-18T04:30:26;96633.75;;;21.44;38.14
47082;BME280;33066;49.296;14.470;2023-09-18T04:32:51;96634.84;;;21.48;37.75
47082;BME280;33066;49.296;14.470;2023-09-18T04:35:17;96631.59;;;21.52;37.67
47082;BME280;33066;49.296;14.470;2023-09-18T04:37:42;96632.77;;;21.52;37.66
47082;BME280;33066;49.296;14.470;2023-09-18T04:40:09;96632.68;;;21.48;37.54
47082;BME280;33066;49.296;14.470;2023-09-18T04:42:33;96633.19;;;21.46;37.72
47082;BME280;33066;49.296;14.470;2023-09-18T04:44:58;96632.42;;;21.45;37.88
47082;BME280;33066;49.296;14.470;2023-09-18T04:47:23;96625.67;;;21.37;37.94
47082;BME280;33066;49.296;14.470;2023-09-18T04:49:50;96619.51;;;21.60;37.90
47082;BME280;33066;49.296;14.470;2023-09-18T04:52:13;96619.55;;;21.60;37.88
47082;BME280;33066;49.296;14.470;2023-09-18T04:54:40;96618.93;;;21.54;37.94
47082;BME280;33066;49.296;14.470;2023-09-18T04:57:03;96612.69;;;21.46;38.02
47082;BME280;33066;49.296;14.470;2023-09-18T04:59:28;96607.75;;;21.46;38.02
47082;BME280;33066;49.296;14.470;2023-09-18T05:01:54;96604.19;;;21.21;38.05
47082;BME280;33066;49.296;14.470;2023-09-18T05:04:20;96598.13;;;21.18;38.09
47082;BME280;33066;49.296;14.470;2023-09-18T05:06:44;96593.30;;;21.17;38.10
47082;BME280;33066;49.296;14.470;2023-09-18T05:09:10;96589.29;;;21.38;38.17
47082;BME280;33066;49.296;14.470;2023-09-18T05:11:35;96585.09;;;21.15;38.24
47082;BME280;33066;49.296;14.470;2023-09-18T05:14:02;96585.16;;;21.20;38.29
47082;BME280;33066;49.296;14.470;2023-09-18T05:16:26;96582.58;;;21.47;38.30
47082;BME280;33066;49.296;14.470;2023-09-18T05:18:51;96576.08;;;21.24;38.21
47082;BME280;33066;49.296;14.470;2023-09-18T05:21:18;96571.97;;;21.26;38.21
47082;BME280;33066;49.296;14.470;2023-09-18T05:23:41;96572.78;;;21.52;38.05
47082;BME280;33066;49.296;14.470;2023-09-18T05:26:07;96569.66;;;21.51;38.11
47082;BME280;33066;49.296;14.470;2023-09-18T05:28:32;96566.43;;;21.33;38.12
47082;BME280;33066;49.296;14.470;2023-09-18T05:30:57;96566.76;;;21.38;38.17
47082;BME280;33066;49.296;14.470;2023-09-18T05:33:22;96568.48;;;21.17;38.28
47082;BME280;33066;49.296;14.470;2023-09-18T05:35:47;96567.25;;;21.47;38.37
47082;BME280;33066;49.296;14.470;2023-09-18T05:38:13;96570.99;;;21.56;38.56
47082;BME280;33066;49.296;14.470;2023-09-18T05:40:38;96572.60;;;21.65;38.60
47082;BME280;33066;49.296;14.470;2023-09-18T05:43:03;96570.48;;;21.74;38.88
47082;BME280;33066;49.296;14.470;2023-09-18T05:45:29;96561.07;;;20.94;38.97
47082;BME280;33066;49.296;14.470;2023-09-18T05:47:54;96557.26;;;22.32;38.24
47082;BME280;33066;49.296;14.470;2023-09-18T05:50:20;96556.69;;;21.82;38.05
47082;BME280;33066;49.296;14.470;2023-09-18T05:52:46;96560.43;;;21.76;38.04
47082;BME280;33066;49.296;14.470;2023-09-18T05:55:11;96554.24;;;22.20;37.69
47082;BME280;33066;49.296;14.470;2023-09-18T05:57:36;96546.02;;;22.21;37.60
47082;BME280;33066;49.296;14.470;2023-09-18T06:00:02;96541.42;;;21.98;37.23
47082;BME280;33066;49.296;14.470;2023-09-18T06:02:28;96539.31;;;22.01;37.55
47082;BME280;33066;49.296;14.470;2023-09-18T06:04:55;96538.36;;;21.84;38.45
47082;BME280;33066;49.296;14.470;2023-09-18T06:07:18;96537.89;;;22.15;39.03
47082;BME280;33066;49.296;14.470;2023-09-18T06:09:43;96534.34;;;22.22;39.23
47082;BME280;33066;49.296;14.470;2023-09-18T06:12:10;96533.75;;;22.13;39.92
47082;BME280;33066;49.296;14.470;2023-09-18T06:14:35;96535.82;;;22.50;40.31
47082;BME280;33066;49.296;14.470;2023-09-18T06:17:01;96537.09;;;22.38;40.31
47082;BME280;33066;49.296;14.470;2023-09-18T06:19:26;96532.73;;;22.51;40.09
47082;BME280;33066;49.296;14.470;2023-09-18T06:21:50;96532.47;;;22.60;40.21
47082;BME280;33066;49.296;14.470;2023-09-18T06:24:15;96541.34;;;22.68;40.79
47082;BME280;33066;49.296;14.470;2023-09-18T06:26:41;96546.45;;;22.78;40.80
47082;BME280;33066;49.296;14.470;2023-09-18T06:29:07;96546.92;;;22.78;40.03
47082;BME280;33066;49.296;14.470;2023-09-18T06:31:32;96545.26;;;22.59;39.88
47082;BME280;33066;49.296;14.470;2023-09-18T06:33:57;96540.77;;;22.89;40.27
47082;BME280;33066;49.296;14.470;2023-09-18T06:36:22;96539.34;;;22.99;40.66
47082;BME280;33066;49.296;14.470;2023-09-18T06:38:47;96538.24;;;23.06;40.82
47082;BME280;33066;49.296;14.470;2023-09-18T06:41:14;96536.51;;;22.84;40.93
47082;BME280;33066;49.296;14.470;2023-09-18T06:43:37;96532.21;;;22.87;41.16
47082;BME280;33066;49.296;14.470;2023-09-18T06:46:06;96527.74;;;22.93;41.20
47082;BME280;33066;49.296;14.470;2023-09-18T06:48:29;96530.17;;;23.01;41.21
47082;BME280;33066;49.296;14.470;2023-09-18T06:50:54;96536.47;;;23.08;41.26
47082;BME280;33066;49.296;14.470;2023-09-18T06:53:19;96537.30;;;22.92;41.37
47082;BME280;33066;49.296;14.470;2023-09-18T06:55:45;96533.55;;;23.25;41.33
47082;BME280;33066;49.296;14.470;2023-09-18T06:58:09;96534.58;;;23.07;41.30
47082;BME280;33066;49.296;14.470;2023-09-18T07:00:35;96541.21;;;23.34;41.28
47082;BME280;33066;49.296;14.470;2023-09-18T07:03:00;96545.07;;;23.30;41.35
47082;BME280;33066;49.296;14.470;2023-09-18T07:05:25;96539.00;;;23.53;41.37
47082;BME280;33066;49.296;14.470;2023-09-18T07:07:51;96536.79;;;23.29;41.48
47082;BME280;33066;49.296;14.470;2023-09-18T07:10:17;96536.41;;;23.57;41.55
47082;BME280;33066;49.296;14.470;2023-09-18T07:12:42;96533.11;;;23.57;41.66
47082;BME280;33066;49.296;14.470;2023-09-18T07:15:08;96529.13;;;23.39;41.76
47082;BME280;33066;49.296;14.470;2023-09-18T07:17:32;96526.30;;;23.27;41.64
47082;BME280;33066;49.296;14.470;2023-09-18T07:19:58;96521.64;;;23.64;41.73
47082;BME280;33066;49.296;14.470;2023-09-18T07:22:23;96521.85;;;23.77;41.72
47082;BME280;33066;49.296;14.470;2023-09-18T07:24:48;96523.24;;;23.63;41.62
47082;BME280;33066;49.296;14.470;2023-09-18T07:27:14;96520.29;;;23.67;41.62
47082;BME280;33066;49.296;14.470;2023-09-18T07:29:39;96521.48;;;23.76;41.55
47082;BME280;33066;49.296;14.470;2023-09-18T07:32:04;96516.48;;;22.52;41.39
47082;BME280;33066;49.296;14.470;2023-09-18T07:34:29;96514.55;;;24.30;40.58
47082;BME280;33066;49.296;14.470;2023-09-18T07:36:55;96512.73;;;24.16;40.84
47082;BME280;33066;49.296;14.470;2023-09-18T07:39:20;96503.66;;;24.27;40.96
47082;BME280;33066;49.296;14.470;2023-09-18T07:41:45;96500.51;;;24.23;41.05
47082;BME280;33066;49.296;14.470;2023-09-18T07:44:11;96506.65;;;24.19;41.09
47082;BME280;33066;49.296;14.470;2023-09-18T07:46:35;96509.67;;;24.19;41.17
47082;BME280;33066;49.296;14.470;2023-09-18T07:49:00;96504.80;;;24.21;41.13
47082;BME280;33066;49.296;14.470;2023-09-18T07:51:25;96500.06;;;24.31;41.28
47082;BME280;33066;49.296;14.470;2023-09-18T07:53:51;96499.59;;;24.41;41.21
47082;BME280;33066;49.296;14.470;2023-09-18T07:56:16;96496.75;;;24.19;41.10
47082;BME280;33066;49.296;14.470;2023-09-18T07:58:41;96491.32;;;24.27;41.15
47082;BME280;33066;49.296;14.470;2023-09-18T08:01:07;96481.44;;;24.55;41.30
47082;BME280;33066;49.296;14.470;2023-09-18T08:03:33;96477.38;;;24.42;41.19
47082;BME280;33066;49.296;14.470;2023-09-18T08:05:58;96486.30;;;24.47;40.94
47082;BME280;33066;49.296;14.470;2023-09-18T08:08:24;96493.72;;;24.27;40.87
47082;BME280;33066;49.296;14.470;2023-09-18T08:10:50;96500.62;;;24.47;40.67
47082;BME280;33066;49.296;14.470;2023-09-18T08:13:15;96494.98;;;24.53;40.72
47082;BME280;33066;49.296;14.470;2023-09-18T08:15:42;96493.70;;;24.79;40.69
47082;BME280;33066;49.296;14.470;2023-09-18T08:18:06;96497.11;;;24.68;40.72
47082;BME280;33066;49.296;14.470;2023-09-18T08:20:32;96504.03;;;24.68;40.34
47082;BME280;33066;49.296;14.470;2023-09-18T08:22:58;96505.53;;;24.97;40.20
47082;BME280;33066;49.296;14.470;2023-09-18T08:25:23;96508.07;;;24.47;40.16
47082;BME280;33066;49.296;14.470;2023-09-18T08:27:49;96498.42;;;24.58;40.25
47082;BME280;33066;49.296;14.470;2023-09-18T08:30:14;96492.78;;;24.65;40.00
47082;BME280;33066;49.296;14.470;2023-09-18T08:32:40;96487.11;;;24.74;40.16
47082;BME280;33066;49.296;14.470;2023-09-18T08:35:06;96486.16;;;24.89;40.18
47082;BME280;33066;49.296;14.470;2023-09-18T08:37:31;96488.31;;;25.00;40.31
47082;BME280;33066;49.296;14.470;2023-09-18T08:39:56;96482.90;;;25.15;40.00
47082;BME280;33066;49.296;14.470;2023-09-18T08:42:22;96477.30;;;25.04;39.89
47082;BME280;33066;49.296;14.470;2023-09-18T08:44:49;96460.94;;;25.32;39.72
47082;BME280;33066;49.296;14.470;2023-09-18T08:47:14;96462.81;;;25.32;39.44
47082;BME280;33066;49.296;14.470;2023-09-18T08:49:38;96462.68;;;25.09;39.37
47082;BME280;33066;49.296;14.470;2023-09-18T08:52:06;96464.98;;;25.36;38.85
47082;BME280;33066;49.296;14.470;2023-09-18T08:54:30;96467.40;;;25.44;38.58
47082;BME280;33066;49.296;14.470;2023-09-18T08:56:55;96467.12;;;25.60;38.70
47082;BME280;33066;49.296;14.470;2023-09-18T08:59:21;96459.37;;;25.81;38.73
47082;BME280;33066;49.296;14.470;2023-09-18T09:01:47;96458.00;;;25.93;38.47
47082;BME280;33066;49.296;14.470;2023-09-18T09:04:12;96464.49;;;25.87;38.33
47082;BME280;33066;49.296;14.470;2023-09-18T09:06:38;96464.25;;;25.85;37.67
47082;BME280;33066;49.296;14.470;2023-09-18T09:09:04;96456.26;;;26.07;37.51
47082;BME280;33066;49.296;14.470;2023-09-18T09:11:30;96449.00;;;25.99;37.46
47082;BME280;33066;49.296;14.470;2023-09-18T09:14:10;96450.20;;;26.61;37.30
47082;BME280;33066;49.296;14.470;2023-09-18T09:16:21;96452.14;;;26.22;37.11
47082;BME280;33066;49.296;14.470;2023-09-18T09:18:49;96456.27;;;26.34;37.03
47082;BME280;33066;49.296;14.470;2023-09-18T09:21:13;96453.85;;;26.40;36.99
47082;BME280;33066;49.296;14.470;2023-09-18T09:23:47;96450.04;;;26.39;36.85
47082;BME280;33066;49.296;14.470;2023-09-18T09:26:12;96452.24;;;26.36;36.79
47082;BME280;33066;49.296;14.470;2023-09-18T09:28:30;96448.29;;;26.46;36.83
47082;BME280;33066;49.296;14.470;2023-09-18T09:31:00;96450.16;;;26.58;36.60
47082;BME280;33066;49.296;14.470;2023-09-18T09:33:24;96450.72;;;26.44;36.34
47082;BME280;33066;49.296;14.470;2023-09-18T09:35:46;96446.27;;;26.83;36.30
47082;BME280;33066;49.296;14.470;2023-09-18T09:38:13;96437.33;;;26.91;36.24
47082;BME280;33066;49.296;14.470;2023-09-18T09:40:39;96429.71;;;26.59;36.35
47082;BME280;33066;49.296;14.470;2023-09-18T09:43:03;96425.19;;;26.95;36.25
47082;BME280;33066;49.296;14.470;2023-09-18T09:45:30;96422.88;;;27.33;36.06
47082;BME280;33066;49.296;14.470;2023-09-18T09:47:57;96418.63;;;27.25;35.93
47082;BME280;33066;49.296;14.470;2023-09-18T09:50:21;96405.63;;;27.04;35.52
47082;BME280;33066;49.296;14.470;2023-09-18T09:52:48;96405.85;;;27.20;35.65
47082;BME280;33066;49.296;14.470;2023-09-18T09:55:19;96403.85;;;27.36;35.51
47082;BME280;33066;49.296;14.470;2023-09-18T09:57:46;96402.60;;;27.44;34.64
47082;BME280;33066;49.296;14.470;2023-09-18T10:00:04;96401.98;;;27.51;34.68
47082;BME280;33066;49.296;14.470;2023-09-18T10:02:29;96397.46;;;27.67;34.69
47082;BME280;33066;49.296;14.470;2023-09-18T10:04:54;96394.60;;;27.79;34.65
47082;BME280;33066;49.296;14.470;2023-09-18T10:07:20;96389.76;;;27.66;34.21
47082;BME280;33066;49.296;14.470;2023-09-18T10:09:47;96385.21;;;27.86;33.99
47082;BME280;33066;49.296;14.470;2023-09-18T10:12:14;96385.05;;;27.70;33.95
47082;BME280;33066;49.296;14.470;2023-09-18T10:14:39;96386.04;;;28.03;33.79
47082;BME280;33066;49.296;14.470;2023-09-18T10:17:07;96388.16;;;28.15;33.99
47082;BME280;33066;49.296;14.470;2023-09-18T10:19:32;96384.94;;;28.22;33.69
47082;BME280;33066;49.296;14.470;2023-09-18T10:22:00;96380.00;;;28.23;33.07
47082;BME280;33066;49.296;14.470;2023-09-18T10:24:22;96372.62;;;28.64;32.38
47082;BME280;33066;49.296;14.470;2023-09-18T10:26:50;96366.78;;;28.84;32.28
47082;BME280;33066;49.296;14.470;2023-09-18T10:29:11;96369.20;;;29.27;31.29
47082;BME280;33066;49.296;14.470;2023-09-18T10:31:36;96368.76;;;29.53;31.45
47082;BME280;33066;49.296;14.470;2023-09-18T10:34:01;96367.15;;;30.04;31.06
47082;BME280;33066;49.296;14.470;2023-09-18T10:36:26;96365.13;;;30.34;30.10
47082;BME280;33066;49.296;14.470;2023-09-18T10:38:53;96358.96;;;30.51;30.51
47082;BME280;33066;49.296;14.470;2023-09-18T10:41:18;96348.67;;;30.99;29.96
47082;BME280;33066;49.296;14.470;2023-09-18T10:43:43;96342.28;;;31.25;29.54
47082;BME280;33066;49.296;14.470;2023-09-18T10:46:08;96334.04;;;31.40;28.88
47082;BME280;33066;49.296;14.470;2023-09-18T10:48:34;96329.97;;;31.95;29.22
47082;BME280;33066;49.296;14.470;2023-09-18T10:50:59;96331.14;;;31.62;27.86
47082;BME280;33066;49.296;14.470;2023-09-18T10:53:26;96338.44;;;32.16;28.25
47082;BME280;33066;49.296;14.470;2023-09-18T10:55:51;96343.09;;;32.29;28.51
47082;BME280;33066;49.296;14.470;2023-09-18T10:58:23;96350.17;;;32.22;27.72
47082;BME280;33066;49.296;14.470;2023-09-18T11:00:42;96352.91;;;32.11;27.74
47082;BME280;33066;49.296;14.470;2023-09-18T11:03:13;96346.74;;;32.63;28.27
47082;BME280;33066;49.296;14.470;2023-09-18T11:05:33;96344.73;;;32.81;28.02
47082;BME280;33066;49.296;14.470;2023-09-18T11:10:28;96343.37;;;32.45;27.80
47082;BME280;33066;49.296;14.470;2023-09-18T11:12:49;96336.98;;;32.69;28.09
47082;BME280;33066;49.296;14.470;2023-09-18T11:15:25;96338.41;;;32.45;28.51
47082;BME280;33066;49.296;14.470;2023-09-18T11:17:40;96334.04;;;33.06;28.71
47082;BME280;33066;49.296;14.470;2023-09-18T11:20:08;96335.53;;;33.30;28.60
47082;BME280;33066;49.296;14.470;2023-09-18T11:22:31;96333.11;;;33.54;28.10
47082;BME280;33066;49.296;14.470;2023-09-18T11:27:26;96326.53;;;34.27;27.22
47082;BME280;33066;49.296;14.470;2023-09-18T11:29:51;96326.94;;;34.19;27.25
47082;BME280;33066;49.296;14.470;2023-09-18T11:32:13;96328.66;;;34.59;27.00
47082;BME280;33066;49.296;14.470;2023-09-18T11:34:38;96326.10;;;34.98;26.09
47082;BME280;33066;49.296;14.470;2023-09-18T11:39:35;96319.05;;;35.38;26.02
47082;BME280;33066;49.296;14.470;2023-09-18T11:44:33;96309.83;;;35.93;25.42
47082;BME280;33066;49.296;14.470;2023-09-18T11:46:47;96307.54;;;35.92;24.86
47082;BME280;33066;49.296;14.470;2023-09-18T11:49:11;96308.44;;;35.95;24.24
47082;BME280;33066;49.296;14.470;2023-09-18T11:51:37;96301.50;;;35.72;24.63
47082;BME280;33066;49.296;14.470;2023-09-18T11:54:03;96296.47;;;36.24;24.16
47082;BME280;33066;49.296;14.470;2023-09-18T11:56:27;96293.79;;;36.23;23.82
47082;BME280;33066;49.296;14.470;2023-09-18T11:58:55;96292.19;;;35.49;24.73
47082;BME280;33066;49.296;14.470;2023-09-18T12:01:19;96295.98;;;35.97;25.14
47082;BME280;33066;49.296;14.470;2023-09-18T12:03:44;96289.83;;;36.07;24.29
47082;BME280;33066;49.296;14.470;2023-09-18T12:06:09;96289.86;;;35.97;24.86
47082;BME280;33066;49.296;14.470;2023-09-18T12:08:34;96290.70;;;35.75;24.77
47082;BME280;33066;49.296;14.470;2023-09-18T12:10:59;96285.10;;;35.85;24.96
47082;BME280;33066;49.296;14.470;2023-09-18T12:13:26;96285.84;;;35.29;25.05
47082;BME280;33066;49.296;14.470;2023-09-18T12:15:51;96287.93;;;36.02;24.77
47082;BME280;33066;49.296;14.470;2023-09-18T12:18:16;96278.45;;;36.28;24.69
47082;BME280;33066;49.296;14.470;2023-09-18T12:20:47;96280.48;;;36.44;24.37
47082;BME280;33066;49.296;14.470;2023-09-18T12:23:07;96274.26;;;36.41;24.43
47082;BME280;33066;49.296;14.470;2023-09-18T12:25:32;96278.03;;;36.17;24.42
47082;BME280;33066;49.296;14.470;2023-09-18T12:27:58;96280.50;;;35.71;24.81
47082;BME280;33066;49.296;14.470;2023-09-18T12:30:23;96279.29;;;36.06;24.62
47082;BME280;33066;49.296;14.470;2023-09-18T12:32:51;96277.25;;;36.85;24.62
47082;BME280;33066;49.296;14.470;2023-09-18T12:35:15;96275.17;;;37.14;24.06
47082;BME280;33066;49.296;14.470;2023-09-18T12:37:40;96278.91;;;37.09;24.08
47082;BME280;33066;49.296;14.470;2023-09-18T12:40:07;96279.71;;;38.03;22.81
47082;BME280;33066;49.296;14.470;2023-09-18T12:42:31;96278.15;;;38.06;22.53
47082;BME280;33066;49.296;14.470;2023-09-18T12:44:57;96278.12;;;38.72;22.36
47082;BME280;33066;49.296;14.470;2023-09-18T12:47:22;96281.98;;;38.80;21.98
47082;BME280;33066;49.296;14.470;2023-09-18T12:49:47;96282.92;;;38.73;21.83
47082;BME280;33066;49.296;14.470;2023-09-18T12:52:13;96278.70;;;38.65;21.80